Date,TemperatureHighF,TemperatureAvgF,TemperatureLowF,DewpointHighF,DewpointAvgF,DewpointLowF,HumidityHigh,HumidityAvg,HumidityLow,PressureMaxIn,PressureMinIn,WindSpeedMaxMPH,WindSpeedAvgMPH,GustSpeedMaxMPH,PrecipitationSumIn
2014-1-1,31.4,26.6,18.7,23.4,16.5,10.0,78,66,49,30.27,30.11,7,1,13,0.00
2014-1-2,31.0,28.0,19.4,28.0,25.2,17.7,95,89,71,30.13,29.51,7,2,9,0.00
2014-1-3,21.0,15.5,7.7,20.0,13.5,3.7,96,91,83,30.31,29.43,11,2,27,0.00
2014-1-4,26.3,12.4,-2.1,21.0,8.8,-6.0,94,85,74,30.41,30.17,5,1,9,0.00
2014-1-5,45.3,27.8,11.4,45.0,26.8,8.5,99,96,85,30.20,29.69,5,0,7,0.25
2014-1-6,54.0,43.8,28.2,54.0,41.1,15.3,100,91,56,29.67,29.27,18,3,18,0.21
2014-1-7,27.8,11.2,7.9,15.4,-3.6,-9.0,59,51,40,30.22,29.49,18,4,26,0.00
2014-1-8,21.7,13.7,5.3,9.6,2.7,-3.5,77,62,46,30.40,30.22,5,1,13,0.00
2014-1-9,29.5,21.1,14.5,14.7,11.3,7.8,86,66,48,30.52,30.34,4,0,12,0.00
2014-1-10,36.1,28.5,13.9,35.6,26.5,10.2,98,92,84,30.46,30.11,1,0,2,0.11
2014-1-11,55.4,49.9,36.2,55.4,49.6,35.7,100,99,98,30.10,29.22,7,2,17,0.53
2014-1-12,49.5,42.6,34.0,49.2,34.4,28.2,99,74,56,29.92,29.26,17,4,24,0.05
2014-1-13,48.8,40.1,27.4,46.3,36.1,25.3,97,86,74,30.03,29.79,6,1,11,0.00
2014-1-14,49.7,46.4,38.1,49.4,45.1,36.5,99,95,87,29.78,29.50,6,1,11,0.72
2014-1-15,43.4,38.0,29.9,43.1,37.6,29.4,100,99,95,29.89,29.68,3,0,5,0.00
2014-1-16,40.0,38.6,35.4,39.7,37.8,33.4,99,97,90,29.81,29.69,3,0,7,0.00
2014-1-17,42.3,34.5,26.4,36.9,31.6,25.2,98,89,72,29.87,29.76,5,0,9,0.00
2014-1-18,45.4,36.0,27.8,41.9,33.0,23.4,99,89,74,29.76,29.46,16,2,23,0.03
2014-1-19,36.7,30.9,26.1,28.4,23.2,20.0,83,73,63,29.67,29.51,7,2,16,0.00
2014-1-20,45.0,39.2,34.0,30.9,28.0,24.4,79,64,51,29.74,29.42,10,2,16,0.00
2014-1-21,33.7,23.4,18.8,24.3,17.9,13.7,94,80,61,29.87,29.64,3,1,10,0.00
2014-1-22,21.5,17.8,13.6,20.2,14.7,5.1,96,87,67,29.81,29.58,10,2,18,0.00
2014-1-23,18.4,13.7,8.3,7.9,5.0,0.3,81,68,58,30.12,29.82,12,2,16,0.00
2014-1-24,16.8,12.8,8.0,7.1,3.5,0.0,74,66,54,30.21,29.98,11,2,16,0.00
2014-1-25,35.3,27.3,14.0,26.7,21.1,7.0,93,78,66,29.98,29.29,11,3,20,0.01
2014-1-26,31.2,21.2,16.1,28.1,12.8,3.4,91,71,48,29.75,29.31,10,2,27,0.00
2014-1-27,43.2,35.0,22.3,36.7,26.1,3.2,94,72,38,29.90,29.48,11,2,22,0.03
2014-1-28,22.0,17.2,14.0,8.8,1.3,-3.1,69,49,41,30.22,29.90,12,2,19,0.00
2014-1-29,22.9,17.3,8.4,13.8,8.0,1.5,89,68,40,30.14,29.94,11,1,14,0.00
2014-1-30,25.0,14.8,4.9,15.3,7.1,-0.6,88,72,51,30.32,30.07,3,0,7,0.00
2014-1-31,41.3,29.0,11.1,26.7,19.9,8.8,93,71,40,30.11,29.95,5,1,15,0.04
2014-2-1,40.7,33.3,28.4,34.9,27.5,22.4,97,80,54,30.21,29.90,3,0,6,0.04
2014-2-2,47.5,38.4,32.9,41.0,35.9,31.6,98,91,76,29.93,29.78,3,0,7,0.01
2014-2-3,38.5,32.9,30.1,35.3,31.8,28.8,98,96,84,30.16,29.92,2,0,4,0.14
2014-2-4,32.3,26.6,19.0,29.9,25.1,17.3,98,94,86,30.32,30.16,2,0,6,0.01
2014-2-5,32.7,31.2,28.9,32.2,30.5,27.7,98,97,94,30.14,29.47,4,1,9,0.02
2014-2-6,30.8,25.5,17.7,29.8,22.4,15.5,96,88,74,30.13,29.80,6,1,11,0.00
2014-2-7,30.5,23.6,13.9,22.3,18.0,11.6,95,80,60,30.18,30.06,7,1,13,0.00
2014-2-8,27.9,22.1,13.7,19.8,14.9,10.2,88,74,54,30.20,30.00,4,0,7,0.00
2014-2-9,30.0,22.4,12.9,23.6,16.4,8.7,93,78,57,30.03,29.84,3,0,8,0.00
2014-2-10,27.6,23.0,13.7,23.7,16.4,8.4,93,76,60,30.12,29.83,11,2,18,0.00
2014-2-11,24.3,16.5,6.8,16.1,9.8,3.5,92,75,55,30.32,30.12,12,1,14,0.00
2014-2-12,25.2,19.4,9.4,22.6,13.9,4.2,90,79,65,30.42,30.16,3,0,6,0.00
2014-2-13,33.8,32.5,25.3,33.3,31.8,22.4,98,97,90,30.16,28.80,6,2,12,0.01
2014-2-14,39.9,34.6,28.0,32.9,29.2,24.6,98,82,63,29.64,28.77,16,4,27,0.01
2014-2-15,36.4,30.3,25.5,32.1,27.8,22.8,97,90,75,29.67,29.37,9,1,16,0.01
2014-2-16,30.2,25.9,22.1,22.6,17.6,15.0,88,71,56,29.90,29.48,10,3,22,0.00
2014-2-17,29.7,21.0,14.3,18.2,9.2,5.7,82,61,37,30.23,29.91,9,2,19,0.00
2014-2-18,37.6,29.6,14.5,36.3,26.6,8.9,98,88,74,30.22,29.79,5,1,15,0.35
2014-2-19,41.4,33.7,22.7,41.1,32.5,21.3,99,95,89,29.98,29.55,9,1,16,0.28
2014-2-20,45.3,38.2,28.7,37.2,32.0,26.8,97,80,50,30.11,29.80,6,1,12,0.04
2014-2-21,50.8,39.9,33.3,50.5,39.4,32.8,100,98,96,29.92,29.56,6,1,15,0.16
2014-2-22,46.1,38.5,29.9,34.7,32.0,27.3,99,79,48,29.92,29.78,5,1,13,0.01
2014-2-23,52.3,41.1,33.3,39.6,34.6,30.3,95,79,43,29.89,29.67,4,1,9,0.00
2014-2-24,43.0,33.8,25.8,36.3,21.8,10.5,95,64,38,29.92,29.64,13,3,24,0.04
2014-2-25,31.8,26.5,21.7,18.6,13.6,8.9,72,58,51,29.93,29.78,9,2,20,0.00
2014-2-26,30.3,23.5,13.2,26.1,14.7,2.8,92,69,48,29.84,29.66,9,1,17,0.00
2014-2-27,31.6,21.0,8.0,25.3,10.1,-6.0,87,64,34,29.90,29.48,14,2,23,0.01
2014-2-28,23.0,15.4,10.3,4.3,-0.8,-7.8,72,49,32,30.31,29.90,12,2,16,0.00
2014-3-1,37.1,23.8,6.8,27.8,17.2,1.0,87,76,64,30.31,30.02,4,1,10,0.01
2014-3-2,40.1,33.7,26.3,31.3,26.9,22.9,95,77,59,30.01,29.84,3,0,7,0.00
2014-3-3,32.8,21.4,14.1,22.3,10.7,4.5,87,63,47,30.17,29.85,4,1,18,0.00
2014-3-4,28.5,19.7,11.2,15.6,10.4,4.5,80,67,50,30.27,30.12,3,0,7,0.00
2014-3-5,36.2,27.8,18.5,21.3,18.0,14.2,86,68,44,30.28,30.07,4,1,7,0.04
2014-3-6,28.9,22.9,17.5,20.8,11.7,8.8,77,62,43,30.49,30.29,4,1,9,0.00
2014-3-7,34.7,30.3,18.6,30.1,24.5,12.3,86,79,70,30.36,29.77,6,1,6,0.02
2014-3-8,54.9,39.4,25.6,32.6,28.2,21.5,88,67,37,29.76,29.60,11,1,15,0.00
2014-3-9,41.7,36.6,32.3,33.5,23.2,15.7,95,60,38,29.86,29.73,11,2,22,0.02
2014-3-10,46.4,37.7,31.2,36.8,30.2,20.6,93,75,53,29.81,29.50,3,1,10,0.02
2014-3-11,62.5,48.8,38.8,38.8,35.7,30.7,92,64,31,29.58,29.40,8,2,19,0.00
2014-3-12,54.6,46.8,36.9,50.8,43.6,34.2,98,89,70,29.57,28.86,5,1,13,0.38
2014-3-13,45.2,25.3,20.3,44.7,11.7,0.3,98,58,33,29.91,28.90,17,4,31,0.01
2014-3-14,40.8,29.9,16.0,32.8,17.5,4.1,79,61,36,30.10,29.83,7,2,17,0.00
2014-3-15,58.6,45.5,37.2,40.2,33.1,26.2,93,65,33,29.83,29.60,14,2,24,0.03
2014-3-16,42.0,34.7,30.7,29.0,15.9,9.8,67,46,33,30.05,29.83,13,2,17,0.00
2014-3-17,32.9,28.7,25.0,12.4,9.3,5.0,57,44,34,30.01,29.90,5,1,7,0.00
2014-3-18,41.9,29.3,17.1,25.5,16.4,7.4,85,61,29,30.17,29.99,5,1,6,0.00
2014-3-19,44.2,34.6,22.4,42.7,29.9,19.7,98,84,68,30.19,29.70,9,2,11,0.27
2014-3-20,53.9,46.5,39.7,45.1,36.4,25.5,99,72,36,29.73,29.55,12,3,22,0.33
2014-3-21,48.3,40.2,30.3,28.4,23.6,20.7,74,52,34,29.93,29.73,13,3,26,0.00
2014-3-22,61.7,44.2,27.3,42.3,32.3,21.6,95,66,32,29.93,29.60,14,2,22,0.00
2014-3-23,43.6,36.0,28.3,29.1,21.8,9.0,87,58,39,29.94,29.81,10,1,17,0.00
2014-3-24,34.3,26.5,20.5,12.2,8.2,5.2,63,46,32,30.08,29.94,9,2,17,0.00
2014-3-25,38.8,29.2,17.0,22.3,16.2,9.8,82,59,39,30.03,29.69,4,1,10,0.00
2014-3-26,37.5,32.2,25.4,22.6,12.8,0.3,68,46,27,30.01,29.53,18,4,30,0.00
2014-3-27,38.3,30.5,20.5,28.4,14.9,5.1,73,53,34,30.26,30.02,11,2,18,0.00
2014-3-28,50.5,44.7,35.6,45.4,40.0,28.2,90,83,73,30.15,29.85,14,2,16,0.00
2014-3-29,47.9,43.5,36.3,46.4,42.1,34.5,99,95,85,30.07,29.61,4,1,10,2.00
2014-3-30,54.6,46.8,39.2,54.3,46.4,38.9,99,99,97,29.60,29.32,6,2,15,2.20
2014-3-31,43.3,37.3,32.4,39.1,35.4,31.0,99,93,82,29.89,29.50,7,2,15,0.52
2014-4-1,53.3,41.2,32.6,40.2,33.7,29.5,92,75,51,29.97,29.87,6,1,14,0.06
2014-4-2,53.9,41.9,33.3,43.9,36.9,31.6,97,83,62,30.01,29.92,3,0,6,0.00
2014-4-3,61.1,45.8,34.8,39.6,33.1,18.5,96,67,19,29.98,29.87,6,1,12,0.00
2014-4-4,44.6,41.7,40.3,40.9,37.6,33.8,96,86,71,29.98,29.62,7,2,12,0.07
2014-4-5,54.8,45.8,38.7,43.5,35.3,24.5,98,71,41,29.89,29.54,15,4,26,0.01
2014-4-6,57.4,42.2,28.6,34.2,27.6,22.9,83,59,30,30.09,29.90,10,1,15,0.00
2014-4-7,52.2,43.6,33.3,47.9,38.5,30.5,98,83,53,30.10,29.59,6,1,12,0.45
2014-4-8,61.1,52.0,47.6,53.0,47.6,35.6,99,87,52,29.59,29.26,13,2,19,0.65
2014-4-9,61.1,48.7,34.8,38.2,32.3,21.1,93,57,29,29.86,29.46,10,2,22,0.00
2014-4-10,56.6,44.7,29.6,40.9,30.5,20.6,82,59,38,30.09,29.87,7,1,13,0.00
2014-4-11,66.8,54.6,48.3,50.5,45.6,38.6,85,72,48,29.92,29.82,4,1,12,0.00
2014-4-12,68.0,55.1,45.1,47.2,41.1,30.4,96,64,28,30.10,29.85,10,1,16,0.00
2014-4-13,66.9,53.5,41.0,55.0,47.5,37.1,94,81,60,30.10,29.91,7,2,14,0.00
2014-4-14,66.9,58.2,52.7,56.5,53.0,50.5,94,83,64,29.93,29.77,9,3,18,0.00
2014-4-15,58.6,54.6,38.1,57.7,53.5,37.1,99,96,91,29.77,29.44,13,2,26,0.67
2014-4-16,47.0,36.7,30.6,36.8,26.7,20.6,96,69,39,30.43,29.70,19,2,26,0.16
2014-4-17,50.8,39.2,30.9,35.4,29.7,23.0,84,69,52,30.59,30.43,6,1,10,0.00
2014-4-18,49.7,40.7,31.6,39.4,34.1,27.6,90,78,61,30.46,30.12,3,1,6,0.00
2014-4-19,65.3,49.0,34.3,40.1,34.1,30.4,98,62,27,30.21,30.08,12,1,17,0.00
2014-4-20,58.2,47.1,34.4,36.3,31.8,26.5,79,57,36,30.35,30.19,5,1,12,0.00
2014-4-21,63.7,46.2,29.6,44.4,37.1,26.3,97,73,45,30.19,29.76,4,1,9,0.00
2014-4-22,63.3,51.8,40.6,53.3,46.6,38.3,98,83,65,29.75,29.36,5,1,13,0.01
2014-4-23,60.4,50.9,44.6,48.6,41.4,32.0,98,72,45,29.61,29.32,15,2,25,0.00
2014-4-24,62.6,50.8,42.2,31.5,21.7,13.6,60,34,18,29.84,29.61,17,3,24,0.00
2014-4-25,59.0,49.1,36.5,42.8,31.2,22.4,81,51,34,29.90,29.67,5,1,12,0.00
2014-4-26,60.5,48.2,43.8,51.7,45.2,38.3,99,90,66,29.75,29.57,5,1,7,0.54
2014-4-27,58.4,48.5,36.2,44.2,40.0,35.4,99,75,49,29.96,29.72,15,2,20,0.00
2014-4-28,65.9,51.1,39.3,43.5,38.4,34.7,86,64,39,30.03,29.87,7,1,14,0.00
2014-4-29,49.3,46.4,42.3,42.2,39.9,37.4,90,78,70,30.32,30.03,6,2,11,0.02
2014-4-30,51.4,44.1,41.3,51.1,42.7,37.9,99,95,85,30.32,29.87,7,2,10,1.02
2014-5-1,65.8,56.0,51.9,62.9,55.1,51.6,100,97,85,29.87,29.54,6,2,14,1.10
2014-5-2,65.9,56.2,46.1,55.5,47.0,42.5,99,73,47,29.70,29.55,5,1,10,0.01
2014-5-3,68.6,55.2,41.3,49.1,43.1,38.8,95,67,38,29.74,29.62,6,1,12,0.00
2014-5-4,66.4,57.1,47.1,51.0,40.9,29.4,91,58,36,29.63,29.46,11,3,22,0.00
2014-5-5,71.7,57.5,48.4,41.9,38.8,33.1,75,51,29,29.73,29.58,11,2,21,0.00
2014-5-6,68.6,55.1,41.5,43.1,37.1,33.4,87,54,29,29.91,29.72,13,1,18,0.00
2014-5-7,65.0,53.8,41.0,44.5,36.9,30.4,81,55,30,30.09,29.91,6,1,12,0.00
2014-5-8,56.1,52.9,46.5,55.5,51.4,43.1,98,95,79,30.06,29.96,1,0,4,0.20
2014-5-9,61.6,58.0,54.3,60.7,57.2,54.0,100,97,92,30.09,29.89,4,1,7,0.25
2014-5-10,76.3,63.5,54.8,66.9,60.4,54.2,99,90,69,29.89,29.69,5,1,9,0.04
2014-5-11,79.4,66.7,54.6,62.8,53.0,42.9,98,66,33,29.93,29.72,12,2,17,0.06
2014-5-12,78.4,64.1,50.5,61.8,54.8,48.3,96,74,43,29.98,29.90,5,1,7,0.00
2014-5-13,69.0,60.6,50.6,57.9,48.0,43.5,94,65,41,30.16,29.87,6,1,12,0.00
2014-5-14,63.4,56.0,46.6,57.8,51.5,43.8,93,85,73,30.19,30.12,4,1,6,0.00
2014-5-15,74.3,65.7,59.9,67.3,62.9,57.8,98,91,78,30.12,30.00,6,1,12,0.08
2014-5-16,67.5,64.0,61.7,64.7,62.6,60.8,98,96,90,30.00,29.71,5,2,13,0.04
2014-5-17,72.1,61.5,54.0,62.8,54.8,48.0,99,81,44,29.95,29.68,12,1,12,0.96
2014-5-18,70.9,58.2,45.7,50.2,41.6,36.8,90,58,30,30.02,29.93,12,2,17,0.00
2014-5-19,70.6,58.8,47.4,43.9,40.5,37.1,77,53,31,30.04,29.91,14,1,20,0.00
2014-5-20,81.3,62.6,48.0,51.1,43.2,33.2,82,54,20,29.96,29.82,8,1,20,0.00
2014-5-21,72.2,63.0,54.6,53.8,51.4,49.0,85,68,46,29.84,29.77,3,0,6,0.00
2014-5-22,58.9,56.9,54.6,58.3,55.2,51.7,99,94,77,29.77,29.68,2,0,5,0.67
2014-5-23,64.0,58.1,55.0,62.0,57.4,54.5,100,98,87,29.79,29.70,2,0,4,0.46
2014-5-24,68.0,58.5,53.0,58.8,54.4,51.5,100,87,66,29.93,29.76,7,0,7,0.04
2014-5-25,78.0,67.0,53.3,59.1,55.5,50.7,96,69,46,29.94,29.89,3,1,9,0.00
2014-5-26,83.3,68.2,55.5,62.6,57.8,47.7,95,72,33,29.90,29.74,5,1,11,0.00
2014-5-27,85.8,73.6,60.5,65.3,59.6,55.2,92,64,37,29.74,29.62,12,1,13,0.00
2014-5-28,62.6,55.2,51.4,57.0,51.9,47.1,97,89,82,30.02,29.68,4,1,8,0.11
2014-5-29,69.2,56.3,47.0,51.2,46.8,42.7,87,72,46,30.08,30.02,5,1,9,0.00
2014-5-30,72.5,59.0,45.6,58.1,50.9,42.2,95,76,52,30.03,29.85,4,0,11,0.00
2014-5-31,71.9,59.8,50.3,59.4,52.0,46.0,94,77,51,30.15,29.90,3,1,10,0.01
2014-6-1,78.1,61.0,44.2,52.8,47.2,41.3,98,66,31,30.21,30.11,3,0,10,0.00
2014-6-2,73.2,56.8,50.5,59.4,50.2,46.8,90,80,56,30.12,30.06,3,0,10,0.00
2014-6-3,81.9,69.7,58.7,67.7,61.0,54.7,94,75,54,29.89,29.70,4,0,6,0.00
2014-6-4,77.2,66.6,61.6,67.5,61.7,59.0,94,85,70,29.71,29.61,3,0,5,0.00
2014-6-5,74.8,63.8,60.4,65.9,61.9,59.2,99,94,68,29.64,29.47,3,0,9,0.65
2014-6-6,79.1,68.1,57.9,60.3,56.3,54.5,96,69,44,29.78,29.61,7,1,13,0.00
2014-6-7,84.2,68.0,55.0,62.2,57.6,52.7,95,72,46,29.84,29.77,6,0,10,0.00
2014-6-8,86.0,70.8,56.9,65.7,59.3,54.5,95,70,40,29.82,29.75,3,0,9,0.00
2014-6-9,67.0,65.2,62.5,65.6,63.1,59.8,99,93,82,29.84,29.77,3,0,4,0.28
2014-6-10,72.7,67.9,65.4,69.1,66.3,64.3,99,95,87,29.86,29.78,2,0,7,0.00
2014-6-11,72.1,65.2,60.3,65.4,60.1,56.7,97,84,68,29.98,29.86,4,1,10,0.01
2014-6-12,77.0,67.3,59.9,71.1,64.2,57.1,98,90,80,29.97,29.81,3,0,6,0.21
2014-6-13,81.8,70.3,65.2,74.6,68.4,64.1,100,94,75,29.81,29.60,3,0,4,0.09
2014-6-14,77.8,69.6,60.2,68.8,62.8,51.3,100,81,52,29.84,29.64,5,1,13,0.03
2014-6-15,81.4,67.4,58.1,62.2,56.5,52.0,86,69,46,29.93,29.84,12,1,13,0.00
2014-6-16,80.1,68.1,56.9,60.6,56.6,52.9,96,70,42,30.01,29.93,3,0,5,0.00
2014-6-17,81.9,71.2,65.6,72.7,67.4,60.2,98,88,71,29.95,29.75,4,0,6,0.12
2014-6-18,90.3,78.8,69.9,72.5,68.4,64.2,92,72,46,29.82,29.64,10,1,13,0.00
2014-6-19,76.9,68.3,64.5,70.3,65.5,61.8,97,91,79,29.86,29.80,3,0,5,0.04
2014-6-20,82.1,67.9,55.8,63.4,55.5,46.8,98,69,34,29.84,29.75,6,1,13,0.00
2014-6-21,75.8,65.1,52.9,56.7,53.2,48.6,90,67,44,29.83,29.75,4,0,6,0.00
2014-6-22,78.8,65.8,53.6,61.0,55.0,50.3,96,71,44,29.89,29.78,3,0,5,0.00
2014-6-23,80.5,68.0,54.1,65.3,59.8,51.5,97,77,51,30.04,29.89,3,0,5,0.00
2014-6-24,80.7,70.7,61.8,66.6,63.4,59.6,96,79,56,30.03,29.90,7,1,10,0.00
2014-6-25,81.3,73.0,67.7,73.8,69.6,64.5,95,89,76,29.90,29.71,3,1,7,0.00
2014-6-26,90.2,77.1,68.8,73.6,70.8,63.1,99,82,54,29.84,29.65,4,1,9,0.14
2014-6-27,79.7,69.9,60.8,65.2,61.8,58.0,98,77,54,30.07,29.84,3,0,7,0.03
2014-6-28,82.9,69.5,56.9,67.9,60.8,54.3,98,76,46,30.14,30.07,3,0,6,0.00
2014-6-29,80.7,69.5,57.3,67.8,61.5,54.7,98,78,48,30.13,29.99,3,0,6,0.00
2014-6-30,82.5,73.5,66.4,71.1,67.7,63.3,96,83,62,30.00,29.83,7,1,8,0.00
2014-7-1,85.7,76.4,70.8,75.4,71.1,68.1,95,84,65,29.84,29.72,5,1,10,0.00
2014-7-2,87.4,78.1,72.7,76.6,73.2,69.7,93,85,69,29.82,29.73,4,1,10,0.00
2014-7-3,89.3,78.4,69.4,76.8,73.3,68.2,96,85,64,29.90,29.76,3,1,17,0.05
2014-7-4,73.6,68.6,63.1,73.2,67.6,60.7,99,97,91,29.85,29.67,4,1,14,0.49
2014-7-5,84.1,71.0,60.9,63.5,56.4,49.9,90,64,31,29.97,29.78,6,2,15,0.00
2014-7-6,85.4,72.3,59.7,66.6,62.0,57.2,94,72,42,29.95,29.80,5,1,14,0.00
2014-7-7,86.0,76.0,69.2,72.8,68.2,63.4,90,77,61,29.81,29.61,7,1,12,0.00
2014-7-8,84.4,77.1,70.2,75.2,70.6,65.3,93,81,71,29.70,29.57,5,1,13,0.00
2014-7-9,86.9,77.4,70.7,72.1,68.8,65.4,91,76,55,29.80,29.61,9,1,15,0.00
2014-7-10,85.5,73.3,68.0,71.8,67.1,63.8,97,82,54,29.99,29.79,2,0,4,0.07
2014-7-11,84.4,72.9,64.9,69.8,64.6,61.6,94,77,53,30.07,29.98,4,0,5,0.00
2014-7-12,86.2,77.2,63.3,68.2,64.7,59.7,90,68,46,30.09,30.01,3,0,5,0.00
2014-7-13,81.0,74.1,69.8,72.6,69.8,67.7,94,87,70,30.01,29.79,4,1,10,0.01
2014-7-14,81.1,75.5,72.3,74.8,72.1,69.7,98,89,77,29.80,29.71,4,0,7,0.34
2014-7-15,78.8,73.8,69.7,76.0,73.0,69.4,99,97,87,29.73,29.61,4,1,14,1.52
2014-7-16,73.0,70.4,66.5,72.8,69.7,65.6,100,98,89,29.73,29.61,2,0,5,0.06
2014-7-17,80.3,70.3,63.5,67.3,63.9,60.3,99,82,55,29.94,29.72,3,0,5,0.01
2014-7-18,85.6,70.0,59.5,64.6,60.3,54.4,96,74,42,30.08,29.94,2,0,6,0.00
2014-7-19,77.1,67.8,60.4,66.1,61.9,57.8,95,82,62,30.11,30.04,2,0,5,0.00
2014-7-20,79.1,70.1,63.6,66.8,63.3,60.3,94,80,58,30.04,29.96,3,0,4,0.00
2014-7-21,81.2,69.9,58.6,68.1,62.8,56.6,97,79,52,30.05,29.99,5,0,5,0.00
2014-7-22,83.9,74.0,64.1,72.9,67.0,62.2,96,80,64,30.03,29.90,4,1,7,0.00
2014-7-23,84.7,76.4,70.5,74.4,70.7,66.8,94,83,69,29.90,29.64,5,1,10,0.00
2014-7-24,84.9,75.2,69.1,71.4,66.9,61.9,92,77,51,29.74,29.62,4,0,9,0.00
2014-7-25,82.9,71.8,62.8,65.5,60.9,54.3,92,71,39,29.88,29.74,4,0,7,0.00
2014-7-26,78.8,72.0,66.1,68.9,65.8,61.9,94,82,58,29.87,29.77,3,0,9,0.00
2014-7-27,82.7,76.9,70.6,74.4,71.5,67.2,92,84,75,29.77,29.53,4,1,9,0.00
2014-7-28,84.3,75.1,68.6,73.6,69.0,60.4,99,83,57,29.54,29.36,4,1,12,0.12
2014-7-29,77.0,68.5,60.9,63.0,59.4,56.6,93,73,56,29.82,29.48,4,1,10,0.00
2014-7-30,81.0,68.3,58.5,63.8,58.2,52.1,94,72,42,29.91,29.81,4,0,7,0.00
2014-7-31,83.0,72.0,62.5,67.3,63.2,60.0,95,76,53,30.02,29.90,4,0,6,0.00
2014-8-1,81.2,74.0,68.8,74.7,69.3,66.7,95,85,73,30.07,30.02,2,0,5,0.00
2014-8-2,70.6,66.3,63.3,69.3,65.5,62.5,99,97,94,30.06,29.95,2,0,6,0.45
2014-8-3,73.2,66.9,62.6,68.7,65.1,62.0,99,94,84,29.98,29.90,1,0,3,0.02
2014-8-4,81.1,71.9,62.5,72.5,68.2,61.3,99,89,73,29.92,29.89,4,0,10,0.00
2014-8-5,87.2,75.4,65.9,72.7,68.9,64.6,99,82,54,29.90,29.76,2,0,5,0.00
2014-8-6,86.1,73.2,64.5,69.3,65.3,62.4,96,78,48,29.77,29.67,4,0,7,0.00
2014-8-7,84.7,71.0,60.7,63.5,59.6,55.2,95,70,39,29.84,29.73,5,1,13,0.00
2014-8-8,83.7,69.3,58.1,62.2,58.0,54.1,93,70,42,29.92,29.84,4,0,10,0.00
2014-8-9,84.0,71.7,60.5,66.6,61.2,54.8,96,72,41,29.96,29.90,4,0,9,0.00
2014-8-10,87.3,73.2,61.9,67.4,62.9,56.5,95,73,40,29.98,29.95,4,0,6,0.00
2014-8-11,83.1,73.5,63.7,71.3,66.9,60.5,99,81,58,30.01,29.97,2,0,6,0.00
2014-8-12,80.7,73.2,66.7,72.4,68.3,64.3,95,85,71,29.97,29.79,5,1,7,0.01
2014-8-13,76.9,70.7,65.7,73.6,69.4,64.5,99,96,82,29.79,29.49,5,1,11,1.67
2014-8-14,78.4,67.2,59.3,65.1,59.9,53.8,99,80,47,29.71,29.60,5,1,12,0.01
2014-8-15,72.5,65.1,57.0,62.9,56.0,50.5,96,74,51,29.83,29.71,7,1,12,0.00
2014-8-16,76.0,67.5,57.9,64.7,59.0,55.0,94,76,50,29.87,29.78,5,0,9,0.00
2014-8-17,82.6,71.2,63.3,67.9,63.7,59.2,95,79,52,29.78,29.64,7,1,12,0.00
2014-8-18,80.9,67.9,57.0,65.1,59.4,54.7,94,76,46,29.76,29.67,6,0,13,0.00
2014-8-19,80.8,67.8,56.3,67.8,61.4,54.2,96,81,60,29.79,29.72,3,0,4,0.00
2014-8-20,80.7,68.7,57.0,67.9,61.5,54.6,99,79,53,29.89,29.79,4,0,5,0.00
2014-8-21,76.8,69.0,59.7,68.6,63.7,57.3,97,84,68,29.93,29.88,2,0,4,0.00
2014-8-22,77.7,68.9,60.8,69.0,64.1,59.8,99,85,60,29.92,29.87,3,0,4,0.08
2014-8-23,74.9,67.3,60.6,64.6,61.6,58.8,97,83,65,29.98,29.89,4,0,12,0.00
2014-8-24,79.3,65.3,54.1,63.8,58.6,52.2,97,80,57,30.01,29.95,3,0,7,0.00
2014-8-25,87.9,70.2,57.2,69.3,62.6,54.6,98,79,48,30.02,29.95,3,0,9,0.00
2014-8-26,83.1,71.7,62.0,69.6,64.9,59.5,97,80,56,30.03,29.94,3,0,5,0.00
2014-8-27,86.4,72.8,61.7,70.5,65.7,59.4,98,80,52,29.94,29.73,3,0,7,0.00
2014-8-28,82.8,72.2,65.7,67.1,61.7,54.8,92,71,44,29.87,29.68,9,1,14,0.00
2014-8-29,77.6,66.6,56.3,59.6,56.3,52.3,92,71,45,30.11,29.88,4,0,6,0.00
2014-8-30,77.4,67.2,55.2,66.3,60.6,50.6,97,80,64,30.14,30.01,4,0,9,0.00
2014-8-31,81.4,74.7,70.2,75.7,71.3,66.5,94,89,81,30.02,29.84,7,1,10,0.01
2014-9-1,86.5,77.5,72.7,75.3,73.0,71.3,97,87,65,29.86,29.79,3,0,6,0.00
2014-9-2,88.1,79.5,73.2,77.6,74.5,71.9,98,85,66,29.80,29.65,3,0,9,0.00
2014-9-3,83.7,75.3,67.2,66.8,63.4,60.0,91,68,45,29.95,29.78,7,1,11,0.00
2014-9-4,86.1,72.4,61.4,71.3,66.0,59.3,99,82,51,30.06,29.96,4,0,5,0.00
2014-9-5,81.6,75.0,68.2,75.4,71.4,66.2,99,89,77,30.04,29.88,4,0,10,0.00
2014-9-6,85.0,78.1,73.4,77.5,74.2,63.8,97,88,72,29.88,29.67,5,1,9,0.00
2014-9-7,78.7,68.8,61.8,66.8,63.6,58.9,99,85,56,30.04,29.77,5,0,10,0.43
2014-9-8,74.0,66.0,58.9,64.4,59.0,54.4,98,79,56,30.19,30.05,2,0,4,0.00
2014-9-9,71.8,66.7,61.4,63.9,60.4,55.2,91,80,73,30.15,30.00,3,0,6,0.00
2014-9-10,74.6,66.9,60.9,65.1,62.0,59.0,96,85,71,29.99,29.89,2,0,4,0.00
2014-9-11,77.1,69.8,60.7,72.3,66.8,58.5,98,91,78,29.89,29.67,6,1,10,0.00
2014-9-12,75.4,65.7,58.8,66.2,56.8,54.3,89,74,53,30.03,29.77,3,1,10,0.00
2014-9-13,69.0,62.9,58.7,62.3,58.7,55.8,98,87,67,30.06,29.94,2,0,5,0.27
2014-9-14,66.7,57.7,50.7,60.3,52.0,48.5,98,83,53,30.10,29.98,5,0,10,0.00
2014-9-15,69.5,57.4,47.4,54.3,49.5,45.2,98,77,45,30.09,29.94,5,0,10,0.00
2014-9-16,64.4,58.3,52.0,62.3,56.5,49.5,98,94,88,29.95,29.82,2,0,4,0.11
2014-9-17,69.9,58.1,50.3,55.1,50.4,45.8,99,78,44,29.90,29.81,4,0,9,0.00
2014-9-18,74.2,60.0,48.5,58.2,51.2,45.6,99,76,43,29.95,29.80,4,0,10,0.00
2014-9-19,64.8,57.0,48.6,53.3,48.7,44.0,91,75,53,30.25,29.95,4,0,6,0.00
2014-9-20,72.5,67.0,47.3,64.1,60.0,43.4,95,79,64,30.22,29.93,3,0,5,0.00
2014-9-21,73.4,69.3,65.7,72.5,68.6,64.2,100,98,95,29.92,29.45,3,0,5,0.91
2014-9-22,70.9,64.6,54.8,68.3,56.1,44.7,99,76,54,30.00,29.46,9,1,16,0.00
2014-9-23,68.5,55.8,45.4,55.7,48.3,41.9,91,77,50,30.27,30.00,6,0,10,0.00
2014-9-24,69.8,58.8,48.2,59.4,53.5,46.3,98,83,59,30.42,30.27,2,0,4,0.00
2014-9-25,62.3,60.4,58.9,61.7,58.4,54.1,99,93,80,30.34,30.04,4,0,6,0.62
2014-9-26,70.1,61.7,56.1,62.0,58.6,54.5,99,90,65,30.06,30.00,3,0,6,0.01
2014-9-27,75.6,62.9,53.6,65.1,58.8,52.5,99,88,60,30.06,30.01,3,0,6,0.01
2014-9-28,75.8,65.0,54.4,66.4,60.8,52.4,99,87,66,30.03,29.87,4,0,6,0.00
2014-9-29,73.0,66.9,61.3,67.7,64.4,60.2,98,92,77,29.87,29.76,2,0,4,0.00
2014-9-30,66.3,63.4,60.3,65.6,62.5,59.2,99,97,95,29.84,29.78,2,0,4,0.08
2014-10-1,62.0,60.1,58.7,61.3,59.6,58.2,99,98,96,29.92,29.82,2,0,5,0.25
2014-10-2,61.5,59.3,57.5,60.2,58.0,55.2,99,96,89,29.99,29.91,3,0,5,0.01
2014-10-3,64.6,56.1,47.5,58.7,53.0,46.2,100,90,74,29.99,29.74,2,0,4,0.01
2014-10-4,66.8,60.9,52.5,66.5,60.0,50.8,99,97,90,29.73,29.33,5,1,11,0.58
2014-10-5,58.4,50.2,42.2,50.4,42.4,38.8,95,76,48,29.84,29.50,6,1,14,0.00
2014-10-6,66.0,54.4,40.8,56.6,48.4,38.7,99,81,60,29.96,29.85,4,0,9,0.00
2014-10-7,69.9,65.7,61.3,64.1,61.9,56.8,93,88,80,29.94,29.82,4,1,11,0.00
2014-10-8,70.3,64.3,56.7,63.5,57.2,48.7,98,79,52,29.81,29.64,6,1,13,0.11
2014-10-9,63.5,56.5,47.3,50.2,46.0,42.9,89,69,48,29.90,29.77,3,0,11,0.00
2014-10-10,63.0,54.6,44.1,52.1,47.8,41.7,96,79,57,29.98,29.88,3,0,5,0.00
2014-10-11,54.5,51.6,43.9,53.0,50.5,43.1,99,96,87,30.00,29.89,2,0,5,0.48
2014-10-12,59.3,48.4,41.5,50.0,44.6,40.4,100,88,57,30.18,30.00,2,0,5,0.00
2014-10-13,63.3,53.2,39.5,59.8,50.4,37.2,99,91,79,30.21,30.12,3,0,4,0.01
2014-10-14,72.8,66.9,60.9,66.3,64.1,60.0,98,91,79,30.11,29.99,3,1,9,0.00
2014-10-15,74.4,69.9,66.6,70.0,67.6,65.1,97,92,86,29.99,29.75,6,1,9,0.00
2014-10-16,69.7,65.3,60.2,68.6,64.8,59.6,100,98,95,29.74,29.55,4,0,6,1.59
2014-10-17,67.2,61.6,55.8,60.7,58.6,55.2,100,90,71,29.59,29.50,6,1,9,0.00
2014-10-18,68.2,62.5,57.8,62.5,56.6,49.2,99,82,58,29.55,29.40,5,1,12,0.00
2014-10-19,57.5,51.5,42.7,49.7,41.1,31.6,86,68,52,29.90,29.53,5,1,16,0.01
2014-10-20,57.3,46.6,34.1,50.0,39.2,31.0,90,76,60,29.98,29.83,4,0,11,0.00
2014-10-21,66.6,56.1,48.0,59.8,53.0,45.4,99,90,72,29.83,29.69,2,0,4,0.35
2014-10-22,57.7,54.1,50.2,57.4,53.4,49.8,99,97,95,29.76,29.50,5,2,12,0.80
2014-10-23,53.7,51.7,49.7,51.5,50.3,48.9,98,95,90,29.55,29.45,6,2,17,0.32
2014-10-24,54.5,50.9,47.6,49.6,48.4,46.2,98,91,79,29.66,29.55,9,1,14,0.06
2014-10-25,63.7,54.3,43.7,52.9,47.7,42.4,97,79,55,29.70,29.41,5,1,9,0.00
2014-10-26,59.1,55.4,50.1,51.3,43.5,40.2,89,65,51,29.66,29.36,19,2,19,0.00
2014-10-27,59.7,52.0,43.5,45.2,42.6,40.7,90,71,54,29.90,29.66,6,1,13,0.00
2014-10-28,65.8,56.4,43.3,60.6,53.5,40.7,99,90,74,29.91,29.78,5,1,10,0.00
2014-10-29,69.2,61.8,53.3,63.5,57.9,49.1,97,88,61,29.79,29.65,4,1,17,0.01
2014-10-30,56.6,49.1,42.3,50.5,44.0,39.2,99,83,59,29.86,29.78,4,0,10,0.00
2014-10-31,55.7,47.9,40.8,49.0,44.1,38.4,96,87,71,29.87,29.71,2,0,6,0.05
2014-11-1,48.7,46.0,42.6,46.5,43.3,40.9,98,91,80,29.72,29.57,8,2,11,0.97
2014-11-2,47.9,43.1,40.6,41.4,31.3,20.8,96,65,41,29.82,29.49,12,3,27,0.01
2014-11-3,55.9,44.4,34.3,37.0,31.8,22.5,83,62,40,29.98,29.81,10,1,24,0.00
2014-11-4,62.3,53.9,40.7,53.1,41.4,29.5,86,65,35,30.01,29.88,3,0,6,0.00
2014-11-5,63.9,56.7,47.8,53.4,46.7,40.7,87,70,45,29.99,29.86,10,1,12,0.00
2014-11-6,57.8,50.8,47.8,57.5,49.7,40.7,99,96,75,29.97,29.40,7,0,11,0.56
2014-11-7,50.0,46.3,38.6,49.0,40.7,30.7,97,82,60,29.75,29.38,9,2,17,0.04
2014-11-8,45.0,41.3,35.5,37.8,33.5,30.7,89,74,60,29.86,29.75,9,1,12,0.00
2014-11-9,55.9,46.0,38.5,43.6,39.5,35.3,93,79,50,29.86,29.75,2,0,8,0.00
2014-11-10,57.4,44.1,32.9,43.1,37.5,30.6,98,80,48,30.06,29.86,4,0,6,0.00
2014-11-11,61.4,49.3,35.9,56.7,47.0,33.0,99,92,83,30.02,29.77,3,0,5,0.00
2014-11-12,62.8,54.6,44.3,59.5,51.8,36.2,99,91,72,29.90,29.72,3,0,10,0.00
2014-11-13,48.7,43.5,38.8,39.9,34.1,30.6,94,70,50,29.96,29.81,4,1,7,0.04
2014-11-14,42.0,37.1,30.2,32.5,28.5,24.6,84,71,59,30.00,29.83,11,1,16,0.17
2014-11-15,39.3,32.4,26.6,26.8,23.6,21.3,84,71,49,30.22,30.00,7,1,15,0.00
2014-11-16,42.9,35.1,24.7,37.7,29.0,21.5,95,79,58,30.25,29.97,2,0,5,0.01
2014-11-17,58.0,47.1,38.2,57.7,46.5,37.1,100,98,91,29.97,29.33,5,1,16,1.35
2014-11-18,46.4,30.6,24.0,43.3,13.1,7.0,90,49,34,29.92,29.38,17,4,22,0.00
2014-11-19,33.1,27.3,21.4,24.3,14.2,7.5,76,58,42,30.09,29.92,11,1,13,0.00
2014-11-20,48.5,39.6,31.3,28.6,24.4,15.4,73,55,41,29.94,29.68,16,2,18,0.00
2014-11-21,35.3,30.2,22.5,17.2,14.6,12.3,77,52,41,30.34,29.84,15,3,23,0.00
2014-11-22,43.8,33.3,20.3,31.5,21.9,15.0,82,64,46,30.35,30.05,10,1,14,0.00
2014-11-23,52.6,45.2,39.5,45.0,33.8,28.1,97,66,46,30.07,29.89,9,1,12,0.00
2014-11-24,60.9,57.5,46.6,60.6,57.0,45.8,99,98,93,29.88,29.48,7,2,16,0.69
2014-11-25,58.2,52.8,44.0,56.7,46.0,33.0,99,80,44,30.01,29.60,7,1,11,0.01
2014-11-26,46.6,40.6,35.7,41.1,38.3,34.9,98,92,71,30.03,29.50,6,1,14,1.22
2014-11-27,37.7,35.9,33.7,36.0,34.2,30.6,98,93,83,29.89,29.60,5,0,12,0.07
2014-11-28,37.3,32.1,23.3,30.6,24.5,18.5,90,74,57,30.12,29.87,14,2,23,0.00
2014-11-29,42.0,29.3,19.2,36.6,22.2,16.0,90,76,50,30.22,30.09,3,0,6,0.00
2014-11-30,54.5,49.7,42.7,48.3,43.5,37.3,91,79,69,30.09,29.93,5,1,17,0.00
2014-12-1,62.6,51.3,38.8,51.8,46.3,31.2,97,84,66,30.28,29.92,4,1,11,0.12
2014-12-2,45.2,39.7,37.0,44.7,35.0,29.8,98,84,70,30.48,30.16,5,1,11,0.26
2014-12-3,48.8,45.4,40.0,48.4,43.9,32.6,99,94,74,30.15,29.81,6,1,18,0.25
2014-12-4,43.9,37.1,30.2,32.5,28.8,26.4,89,72,51,30.36,30.02,9,1,14,0.00
2014-12-5,50.4,39.4,28.6,50.1,35.7,25.3,99,87,78,30.46,30.17,5,1,9,0.31
2014-12-6,50.7,46.4,40.2,50.4,45.9,39.7,99,98,97,30.17,29.94,4,0,10,1.14
2014-12-7,40.1,35.7,27.8,39.6,27.3,15.8,98,73,50,30.46,30.01,6,2,18,0.18
2014-12-8,34.4,30.4,25.9,33.1,25.7,14.7,95,83,60,30.52,30.20,4,1,10,0.02
2014-12-9,43.4,40.1,34.3,43.1,39.6,33.0,99,98,95,30.18,29.38,6,2,16,2.31
2014-12-10,39.8,36.2,31.6,39.0,35.5,30.4,99,97,95,29.47,29.35,7,2,13,0.13
2014-12-11,37.0,31.8,27.7,30.4,27.9,24.2,95,86,66,29.70,29.41,8,2,17,0.01
2014-12-12,37.1,32.4,25.3,29.3,26.9,23.3,94,80,68,29.81,29.70,8,1,15,0.00
2014-12-13,41.2,35.6,31.7,30.6,29.0,26.8,85,77,63,29.80,29.70,11,2,21,0.00
2014-12-14,42.8,36.2,29.2,35.2,32.0,27.1,96,85,72,29.81,29.69,10,1,17,0.00
2014-12-15,43.2,33.1,27.3,34.8,29.7,25.6,97,88,69,29.98,29.80,3,0,9,0.00
2014-12-16,46.0,37.3,24.9,44.3,35.6,22.9,98,93,86,29.98,29.67,3,0,3,0.13
2014-12-17,48.5,43.8,41.4,45.2,43.2,40.9,99,97,87,29.67,29.63,6,1,13,0.25
2014-12-18,41.9,37.8,29.1,34.0,29.0,26.5,92,71,57,29.81,29.68,15,3,21,0.00
2014-12-19,39.0,34.8,26.6,30.1,27.1,22.4,91,74,59,30.03,29.79,8,1,15,0.00
2014-12-20,33.4,32.1,26.9,29.4,26.4,23.1,88,79,73,30.14,30.03,4,0,8,0.00
2014-12-21,36.9,35.1,32.5,35.8,33.1,29.4,96,92,88,30.17,30.10,3,0,7,0.01
2014-12-22,46.1,41.3,36.7,44.5,39.7,35.5,97,94,89,30.18,30.04,4,0,6,0.02
2014-12-23,47.2,45.8,44.3,46.7,45.2,43.5,99,98,96,30.04,29.91,3,1,7,0.21
2014-12-24,60.4,51.5,46.0,60.4,51.3,45.7,100,99,99,29.94,29.41,7,1,14,0.65
2014-12-25,54.9,49.7,40.3,54.9,42.0,32.1,100,77,50,29.94,29.37,12,2,27,0.11
2014-12-26,47.0,38.0,30.8,35.1,32.1,28.8,93,80,59,30.09,29.94,7,1,12,0.00
2014-12-27,50.8,37.5,29.5,39.1,33.0,27.9,98,85,61,30.12,29.95,3,0,4,0.00
2014-12-28,51.2,45.5,37.7,46.2,41.9,36.0,99,87,71,29.93,29.70,5,1,11,0.07
2014-12-29,41.8,36.7,30.8,35.5,28.3,24.2,89,72,51,30.10,29.90,6,0,11,0.00
2014-12-30,32.6,29.1,21.4,26.4,17.6,13.8,78,62,50,30.25,30.10,4,1,16,0.00
2014-12-31,30.6,24.4,19.5,18.0,14.0,10.6,84,66,44,30.22,30.03,8,1,16,0.00
2015-1-1,38.2,30.1,20.2,24.9,15.8,9.7,79,56,38,30.04,29.84,13,2,16,0.00
2015-1-2,41.6,34.7,27.0,24.0,21.7,20.3,82,60,43,30.30,29.86,10,2,21,0.00